logo
Search for airport 
image banner adimage banner adimage banner ad
image banner ad

YAYT - Ayton

Located in Bloomfield, Australia

ICAO - , IATA -

Data provided by Airmate  

General information

Coordinates: S15°53'55" E145°20'23"
Elevation is 48 feet MSL.
Magnetic variation is 6° East
View others Airports in Queensland

Operational data

Special qualification required
Current time UTC:
Current local time:
Weather at : - ( 0 km )
METAR: PAKX 231735Z AUTO 00000KT 10SM CLR 12/10 A3007 RMK AO2
View NOTAMs / SUP AIP / TFR affecting this airport [VIEW]
Communications frequencies: [VIEW]

Runways:

Airport contact information

Address: Bloomfield Australia

Satellite view of YAYT